Time;durP1;ratioP1;P1;durP2;ratioP2;P2;SDS_P1;SDS_P2;PMS_P1;PMS_P2;Temp;Humidity;BMP_temperature;BMP_pressure;BME280_temperature;BME280_humidity;BME280_pressure;Samples;Min_cycle;Max_cycle;Signal;HPM_P1;HPM_P2
2022/04/08 00:00:33;;;;;;;5.20;1.25;;;;;;;9.93;46.98;98298.97;1091253;46;20037;-79
2022/04/08 00:01:35;;;;;;;5.03;1.30;;;;;;;9.88;46.96;98301.38;1090079;46;20061;-80
2022/04/08 00:02:41;;;;;;;5.88;1.17;;;;;;;9.88;47.08;98306.69;1088407;54;20041;-79
2022/04/08 00:03:42;;;;;;;5.82;1.38;;;;;;;9.89;46.83;98305.69;1090209;46;20064;-81
2022/04/08 00:04:49;;;;;;;5.53;1.38;;;;;;;9.81;47.18;98306.59;1088484;54;20042;-81
2022/04/08 00:05:52;;;;;;;5.20;1.27;;;;;;;9.90;46.87;98307.34;1088431;54;20015;-80
2022/04/08 00:06:56;;;;;;;4.35;1.00;;;;;;;9.98;47.03;98304.59;1088394;54;20026;-82
2022/04/08 00:07:58;;;;;;;5.03;1.15;;;;;;;9.82;47.45;98301.06;1088417;54;20042;-80
2022/04/08 00:09:02;;;;;;;3.45;0.93;;;;;;;9.96;47.12;98307.47;1088783;46;20718;-82
2022/04/08 04:50:34;;;;;;;9.70;1.80;;;;;;;8.09;58.29;98531.94;1088037;46;20014;-78
2022/04/08 04:51:38;;;;;;;9.48;1.88;;;;;;;8.10;58.33;98530.13;1088489;54;20039;-80
2022/04/08 04:52:40;;;;;;;9.75;1.70;;;;;;;8.05;58.26;98532.44;1088378;54;20039;-79
2022/04/08 04:53:44;;;;;;;7.05;2.03;;;;;;;8.22;57.96;98534.09;1088422;54;20034;-80
2022/04/08 04:54:45;;;;;;;6.63;1.25;;;;;;;8.17;58.20;98531.09;1092263;46;20042;-78
2022/04/08 04:55:49;;;;;;;9.52;2.05;;;;;;;8.19;58.02;98541.59;1088742;46;20019;-78
2022/04/08 04:56:59;;;;;;;10.55;2.15;;;;;;;8.15;58.25;98537.59;1088437;54;20022;-78
2022/04/08 04:58:02;;;;;;;7.18;2.03;;;;;;;8.11;58.38;98540.59;1088380;54;20030;-79
2022/04/08 04:59:06;;;;;;;9.65;1.92;;;;;;;8.18;57.99;98546.09;1091795;46;20031;-79
2022/04/08 05:00:09;;;;;;;7.80;1.83;;;;;;;8.22;58.30;98543.91;1088354;54;20035;-78
2022/04/08 05:01:15;;;;;;;7.60;2.00;;;;;;;8.15;58.58;98543.75;1089875;39;20504;-79
2022/04/08 05:02:16;;;;;;;6.28;1.60;;;;;;;8.13;58.74;98535.09;1099718;46;20023;-78
2022/04/08 05:03:20;;;;;;;7.65;1.70;;;;;;;8.12;58.32;98539.59;1088433;54;20037;-79
2022/04/08 05:04:24;;;;;;;9.45;2.15;;;;;;;8.10;58.14;98551.41;1088334;54;20091;-78
2022/04/08 05:05:26;;;;;;;8.82;2.00;;;;;;;8.11;58.36;98548.56;1087936;54;20034;-78
2022/04/08 05:06:34;;;;;;;7.05;2.03;;;;;;;8.05;58.58;98543.06;1088304;54;20135;-79
2022/04/08 05:07:37;;;;;;;7.30;1.77;;;;;;;8.16;58.47;98549.91;1088371;54;20034;-78
2022/04/08 05:08:42;;;;;;;8.07;2.05;;;;;;;8.16;58.42;98542.75;1088372;54;20071;-80
2022/04/08 05:09:44;;;;;;;10.68;2.15;;;;;;;8.14;58.28;98547.41;1088307;54;20039;-78
2022/04/08 05:10:48;;;;;;;8.77;2.67;;;;;;;8.09;58.72;98545.25;1088372;54;20034;-78
2022/04/08 05:11:50;;;;;;;8.18;1.92;;;;;;;8.22;58.18;98544.75;1088389;54;20034;-79
2022/04/08 05:12:54;;;;;;;8.43;2.38;;;;;;;8.13;58.47;98551.06;1088336;54;20018;-78
2022/04/08 05:13:59;;;;;;;8.07;2.10;;;;;;;8.09;58.77;98550.56;1088852;46;20022;-80
2022/04/08 05:15:00;;;;;;;7.05;1.90;;;;;;;8.20;58.53;98551.25;1088342;54;20042;-79
2022/04/08 05:16:05;;;;;;;7.00;1.73;;;;;;;8.19;58.11;98546.91;1088298;54;20972;-79
2022/04/08 05:17:06;;;;;;;7.75;1.48;;;;;;;8.21;58.25;98555.56;1088395;54;20030;-78
2022/04/08 05:18:11;;;;;;;23.80;3.22;;;;;;;8.14;58.30;98552.72;1088354;54;20041;-80
2022/04/08 05:19:13;;;;;;;7.60;1.88;;;;;;;8.31;58.12;98556.22;1088359;54;20026;-79
2022/04/08 05:20:17;;;;;;;8.02;1.73;;;;;;;8.25;58.00;98562.25;1088315;54;20049;-79
2022/04/08 05:21:23;;;;;;;5.68;1.48;;;;;;;8.36;57.90;98572.53;1087905;54;20034;-78
2022/04/08 05:22:28;;;;;;;7.90;2.10;;;;;;;8.43;57.41;98564.72;1089638;46;20026;-77
2022/04/08 05:23:32;;;;;;;6.95;1.55;;;;;;;8.37;57.87;98563.53;1088761;46;20031;-78
2022/04/08 05:24:37;;;;;;;8.07;1.55;;;;;;;8.49;57.58;98556.09;1088336;54;20053;-78
2022/04/08 05:25:38;;;;;;;6.20;1.65;;;;;;;8.45;57.72;98554.72;1088345;54;20036;-78
2022/04/08 05:26:42;;;;;;;8.00;1.88;;;;;;;8.40;57.59;98557.06;1088328;54;20026;-78
2022/04/08 05:27:44;;;;;;;7.88;1.80;;;;;;;8.43;57.59;98562.06;1088365;54;20034;-78
2022/04/08 05:28:48;;;;;;;11.98;1.80;;;;;;;8.30;57.88;98569.72;1088349;54;20050;-78
2022/04/08 05:29:50;;;;;;;5.75;1.70;;;;;;;8.42;57.68;98563.03;1088298;54;20030;-79
2022/04/08 05:30:54;;;;;;;7.18;1.80;;;;;;;8.27;57.64;98566.38;1088405;54;20102;-79
2022/04/08 05:31:56;;;;;;;10.15;2.53;;;;;;;8.27;57.65;98568.19;1088301;54;20022;-79
2022/04/08 05:33:03;;;;;;;9.57;2.28;;;;;;;8.31;57.29;98577.53;1088173;54;20048;-78
2022/04/08 05:34:07;;;;;;;9.77;1.73;;;;;;;8.44;57.34;98571.69;1088283;54;20057;-78
2022/04/08 05:35:09;;;;;;;10.02;1.95;;;;;;;8.55;56.90;98576.72;1088334;54;20046;-78
2022/04/08 05:36:13;;;;;;;9.50;1.88;;;;;;;8.60;56.81;98572.75;1088282;54;20030;-79
2022/04/08 05:37:15;;;;;;;5.70;1.60;;;;;;;8.60;56.72;98575.41;1088772;46;20039;-79
2022/04/08 05:38:22;;;;;;;7.00;1.88;;;;;;;8.56;56.60;98573.06;1087820;54;20035;-79
2022/04/08 05:39:23;;;;;;;6.85;1.63;;;;;;;8.49;56.76;98571.25;1088086;54;20039;-78
2022/04/08 05:40:27;;;;;;;8.95;1.83;;;;;;;8.45;56.92;98565.38;1088318;54;20042;-78
2022/04/08 05:41:31;;;;;;;7.32;2.13;;;;;;;8.46;56.77;98575.03;1088279;54;20034;-79
2022/04/08 05:42:33;;;;;;;9.82;3.90;;;;;;;8.35;57.22;98570.03;1088271;54;20045;-80
2022/04/08 05:43:37;;;;;;;8.45;2.42;;;;;;;8.47;57.11;98566.09;1088235;54;20093;-79
2022/04/08 05:44:39;;;;;;;7.18;2.35;;;;;;;8.46;56.91;98572.38;1088204;54;20061;-79
2022/04/08 05:45:43;;;;;;;8.63;2.78;;;;;;;8.40;56.90;98565.06;1088250;54;20027;-79
2022/04/08 05:46:47;;;;;;;10.23;2.10;;;;;;;8.33;57.11;98562.22;1088320;54;20033;-78
2022/04/08 05:47:50;;;;;;;12.57;2.42;;;;;;;8.37;56.98;98563.53;1088185;54;20026;-78
2022/04/08 05:48:54;;;;;;;8.75;2.03;;;;;;;8.40;56.99;98554.41;1088924;47;20034;-78
2022/04/08 05:49:59;;;;;;;8.98;1.83;;;;;;;8.35;56.90;98562.06;1088249;54;20038;-79
2022/04/08 05:51:03;;;;;;;8.75;2.20;;;;;;;8.31;57.03;98571.41;1087918;54;20035;-79
2022/04/08 05:52:05;;;;;;;6.13;1.70;;;;;;;8.43;57.08;98568.22;1088304;54;20038;-79
2022/04/08 05:53:09;;;;;;;10.60;2.40;;;;;;;8.33;57.22;98562.22;1093824;39;20668;-79
2022/04/08 05:54:13;;;;;;;7.20;1.85;;;;;;;8.36;56.84;98564.53;1088130;54;20046;-78
2022/04/08 05:55:18;;;;;;;15.65;1.80;;;;;;;8.34;57.35;98568.38;1087846;54;20042;-79
2022/04/08 05:56:22;;;;;;;11.57;2.35;;;;;;;8.40;57.09;98562.41;1088254;54;20039;-79
2022/04/08 05:57:23;;;;;;;8.60;1.85;;;;;;;8.39;56.86;98572.22;1088246;54;20039;-79
2022/04/08 05:58:28;;;;;;;9.93;2.00;;;;;;;8.53;56.91;98561.94;1088222;54;20034;-78
2022/04/08 05:59:29;;;;;;;7.70;1.80;;;;;;;8.52;56.66;98549.59;1088189;54;20038;-80
2022/04/08 06:00:35;;;;;;;8.75;1.85;;;;;;;8.48;56.65;98553.59;1088276;54;20031;-77
2022/04/08 06:01:37;;;;;;;9.38;2.38;;;;;;;8.48;56.69;98554.44;1088307;54;20035;-79
2022/04/08 06:02:43;;;;;;;7.53;1.88;;;;;;;8.57;56.58;98553.44;1088275;54;20034;-78
2022/04/08 06:03:47;;;;;;;8.88;1.60;;;;;;;8.70;56.48;98552.06;1088249;54;20034;-78
2022/04/08 06:04:48;;;;;;;9.77;2.15;;;;;;;8.57;56.88;98557.91;1088243;54;20026;-78
2022/04/08 06:05:53;;;;;;;7.28;1.88;;;;;;;8.54;56.85;98553.75;1088259;54;20023;-78
2022/04/08 06:06:54;;;;;;;9.82;1.80;;;;;;;8.79;56.54;98547.56;1088340;54;20045;-77
2022/04/08 06:07:58;;;;;;;7.75;1.80;;;;;;;8.94;56.06;98547.69;1088208;54;20737;-78
2022/04/08 06:09:00;;;;;;;9.13;1.73;;;;;;;8.92;55.98;98542.53;1088274;54;20019;-78
2022/04/08 06:10:08;;;;;;;9.73;2.17;;;;;;;8.78;56.23;98538.75;1088198;54;20677;-78
2022/04/08 06:11:12;;;;;;;9.02;2.00;;;;;;;8.84;56.27;98542.53;1088011;54;20034;-78
2022/04/08 06:12:14;;;;;;;8.70;1.73;;;;;;;8.70;56.66;98542.25;1087975;54;20035;-79
2022/04/08 06:13:24;;;;;;;8.93;2.20;;;;;;;8.77;56.50;98541.56;1088223;54;20042;-79
2022/04/08 06:14:26;;;;;;;8.15;1.90;;;;;;;8.66;56.72;98542.75;1088331;54;20035;-78
2022/04/08 06:15:31;;;;;;;10.75;2.00;;;;;;;8.70;56.90;98541.41;1088217;54;20037;-78
2022/04/08 06:16:33;;;;;;;6.88;1.95;;;;;;;8.77;56.49;98544.22;1088285;54;20022;-77
2022/04/08 06:17:38;;;;;;;13.50;2.17;;;;;;;8.80;56.52;98543.91;1088275;54;20014;-78
2022/04/08 06:18:40;;;;;;;10.70;2.00;;;;;;;8.74;56.66;98538.22;1088314;54;20034;-78
2022/04/08 06:19:46;;;;;;;6.05;1.92;;;;;;;8.74;56.85;98537.41;1088198;54;20038;-79
2022/04/08 06:20:51;;;;;;;5.85;1.70;;;;;;;8.74;56.70;98538.22;1088276;54;20039;-79
2022/04/08 06:21:54;;;;;;;8.10;1.60;;;;;;;8.85;56.49;98539.72;1088288;54;20022;-79
2022/04/08 06:22:58;;;;;;;10.07;2.15;;;;;;;8.70;57.17;98541.41;1088285;54;20034;-78
2022/04/08 06:24:00;;;;;;;6.45;1.90;;;;;;;8.73;57.21;98530.41;1088367;54;20039;-81
2022/04/08 06:25:08;;;;;;;9.35;1.73;;;;;;;8.67;57.42;98531.09;1088240;54;20034;-77
2022/04/08 06:26:09;;;;;;;8.95;2.72;;;;;;;8.72;57.22;98531.41;1088207;54;20026;-78
2022/04/08 06:27:13;;;;;;;8.23;2.38;;;;;;;8.67;57.23;98531.09;1088196;54;20033;-79
2022/04/08 06:28:15;;;;;;;13.35;5.28;;;;;;;8.67;57.25;98526.59;1087978;54;20034;-78
2022/04/08 06:29:19;;;;;;;10.75;4.10;;;;;;;8.72;57.01;98524.28;1089003;46;20014;-78
2022/04/08 06:30:20;;;;;;;10.40;3.25;;;;;;;8.75;57.07;98520.44;1088446;54;20026;-79
2022/04/08 06:31:28;;;;;;;7.68;2.10;;;;;;;8.67;57.58;98518.59;1091274;39;20515;-79
2022/04/08 06:32:30;;;;;;;9.75;2.15;;;;;;;8.67;57.56;98515.13;1087944;54;20061;-79
2022/04/08 06:33:34;;;;;;;12.80;2.40;;;;;;;8.78;56.99;98516.59;1088275;54;20018;-78
2022/04/08 06:34:36;;;;;;;9.95;2.45;;;;;;;8.74;57.35;98526.75;1088158;54;20034;-79
2022/04/08 06:35:41;;;;;;;8.20;2.08;;;;;;;8.87;56.89;98516.41;1088179;54;20069;-79
2022/04/08 06:36:42;;;;;;;6.65;1.80;;;;;;;8.74;57.25;98526.75;1088396;46;20041;-78
2022/04/08 06:37:49;;;;;;;8.18;2.00;;;;;;;8.70;57.53;98522.75;1088083;54;20037;-79
2022/04/08 06:38:50;;;;;;;8.63;1.95;;;;;;;8.67;57.63;98517.78;1088100;54;20034;-78
2022/04/08 06:39:56;;;;;;;8.50;1.95;;;;;;;8.79;57.53;98523.56;1088089;54;20098;-78
2022/04/08 06:41:03;;;;;;;10.02;2.17;;;;;;;8.70;57.48;98530.75;1087991;54;20094;-79
2022/04/08 06:42:05;;;;;;;6.63;1.52;;;;;;;8.79;57.36;98529.72;1088297;54;20034;-78
2022/04/08 06:43:11;;;;;;;6.32;1.45;;;;;;;8.85;57.29;98523.72;1088249;54;20041;-77
2022/04/08 06:44:12;;;;;;;9.20;1.88;;;;;;;8.87;57.02;98527.06;1091435;46;20038;-80
2022/04/08 06:45:16;;;;;;;10.07;1.95;;;;;;;8.93;57.12;98524.69;1087875;54;20998;-79
2022/04/08 06:46:21;;;;;;;5.97;1.92;;;;;;;8.97;56.72;98520.72;1088221;54;20030;-80
2022/04/08 06:47:24;;;;;;;5.97;1.50;;;;;;;8.99;56.95;98514.19;1088219;54;20069;-80
2022/04/08 06:48:28;;;;;;;8.45;2.00;;;;;;;8.86;57.05;98520.06;1088263;54;20022;-81
2022/04/08 06:49:32;;;;;;;8.88;1.98;;;;;;;8.84;57.57;98510.56;1088231;54;20019;-80
2022/04/08 06:50:36;;;;;;;7.47;1.90;;;;;;;8.83;57.55;98514.25;1088277;54;20023;-80
2022/04/08 06:51:38;;;;;;;7.32;1.98;;;;;;;8.85;57.73;98501.56;1088139;54;20023;-80
2022/04/08 06:52:42;;;;;;;5.45;1.77;;;;;;;8.92;57.44;98505.22;1091098;46;20034;-80
2022/04/08 06:53:43;;;;;;;7.28;1.92;;;;;;;8.98;57.37;98503.69;1088233;54;20041;-79
2022/04/08 06:54:48;;;;;;;7.22;2.22;;;;;;;8.92;57.54;98501.72;1091253;46;20086;-79
2022/04/08 06:55:49;;;;;;;8.80;1.67;;;;;;;8.89;57.68;98497.56;1090154;46;20058;-79
2022/04/08 06:56:56;;;;;;;8.27;2.30;;;;;;;8.86;57.60;98505.91;1089082;46;20037;-79
2022/04/08 06:57:58;;;;;;;10.30;2.13;;;;;;;8.86;57.64;98514.75;1090204;46;20020;-80
2022/04/08 06:59:02;;;;;;;6.60;1.85;;;;;;;8.77;58.24;98510.44;1090201;46;20138;-80
2022/04/08 07:00:06;;;;;;;9.38;2.20;;;;;;;8.81;57.82;98505.59;1088076;54;20125;-80
2022/04/08 07:01:11;;;;;;;10.50;1.85;;;;;;;8.79;57.88;98500.41;1088416;54;20026;-81
2022/04/08 07:02:13;;;;;;;8.32;1.88;;;;;;;8.86;58.13;98501.41;1088104;54;20038;-79
2022/04/08 07:03:17;;;;;;;10.98;3.67;;;;;;;8.90;57.81;98500.06;1089132;46;20046;-80
2022/04/08 07:04:19;;;;;;;11.30;2.88;;;;;;;9.00;57.73;98501.69;1088731;46;20061;-80
2022/04/08 07:05:25;;;;;;;10.10;3.00;;;;;;;8.90;57.94;98500.06;1088224;54;20034;-81
2022/04/08 07:06:29;;;;;;;7.13;2.38;;;;;;;8.91;57.65;98490.25;1088598;47;20046;-80
2022/04/08 07:07:32;;;;;;;7.75;2.10;;;;;;;8.99;57.65;98492.03;1088431;46;20314;-79
2022/04/08 07:08:36;;;;;;;7.90;2.13;;;;;;;9.02;57.54;98489.84;1088344;54;20074;-79
2022/04/08 07:09:38;;;;;;;7.70;1.92;;;;;;;9.08;57.35;98488.31;1088405;54;20027;-80
2022/04/08 07:10:45;;;;;;;5.93;2.22;;;;;;;9.21;57.07;98477.94;1088352;54;20033;-81
2022/04/08 07:11:47;;;;;;;5.00;1.50;;;;;;;9.34;56.85;98480.03;1089075;47;20026;-79
2022/04/08 07:12:54;;;;;;;6.13;1.75;;;;;;;9.33;57.05;98477.56;1088377;54;20037;-79
2022/04/08 07:13:56;;;;;;;9.07;1.70;;;;;;;9.30;56.97;98476.06;1088266;54;20038;-80
2022/04/08 07:15:00;;;;;;;7.55;1.83;;;;;;;9.27;57.01;98480.91;1088643;46;20122;-80
2022/04/08 07:16:04;;;;;;;8.18;1.95;;;;;;;9.23;57.05;98472.41;1088206;54;20046;-80
2022/04/08 07:17:07;;;;;;;8.57;2.30;;;;;;;9.25;57.16;98475.75;1088315;54;20041;-80
2022/04/08 07:18:11;;;;;;;10.93;2.08;;;;;;;9.23;57.28;98477.75;1088145;54;20789;-80
2022/04/08 07:19:12;;;;;;;7.32;1.98;;;;;;;9.20;56.92;98468.28;1087869;54;20027;-80
2022/04/08 07:20:17;;;;;;;8.98;2.45;;;;;;;9.10;57.26;98475.66;1087757;54;20137;-79
2022/04/08 07:21:19;;;;;;;9.45;2.15;;;;;;;8.98;57.44;98477.03;1087829;54;20061;-80
2022/04/08 07:22:23;;;;;;;8.02;1.55;;;;;;;9.23;57.26;98482.28;1087855;54;20030;-80
2022/04/08 07:23:28;;;;;;;7.07;1.92;;;;;;;9.32;57.03;98468.69;1087904;54;20094;-80
2022/04/08 07:24:29;;;;;;;10.15;2.45;;;;;;;9.20;57.40;98472.78;1088133;54;20054;-79
2022/04/08 07:25:33;;;;;;;6.50;1.58;;;;;;;9.42;57.06;98471.16;1088191;54;20057;-79
2022/04/08 07:26:37;;;;;;;5.97;1.58;;;;;;;9.32;57.09;98465.22;1088157;54;20054;-80
2022/04/08 07:27:43;;;;;;;6.20;2.22;;;;;;;9.24;57.72;98462.59;1094521;39;20259;-80
2022/04/08 07:28:49;;;;;;;9.38;2.20;;;;;;;9.15;57.80;98464.47;1088110;54;20026;-81
2022/04/08 07:29:51;;;;;;;7.38;1.85;;;;;;;9.06;57.98;98461.03;1095285;39;20923;-80
2022/04/08 07:30:55;;;;;;;6.57;1.75;;;;;;;9.21;57.81;98461.09;1088134;54;20042;-80
2022/04/08 07:31:57;;;;;;;7.55;2.45;;;;;;;9.24;58.07;98463.41;1088079;54;20034;-79
2022/04/08 07:33:03;;;;;;;9.20;2.10;;;;;;;9.12;58.21;98460.31;1088018;54;20141;-79
2022/04/08 07:34:04;;;;;;;10.57;2.63;;;;;;;9.14;58.05;98458.31;1088052;54;20028;-78
2022/04/08 07:35:10;;;;;;;7.57;1.90;;;;;;;9.10;57.85;98462.31;1089641;46;20034;-77
2022/04/08 07:36:15;;;;;;;6.65;1.98;;;;;;;9.05;57.45;98454.03;1088204;54;20046;-78
2022/04/08 07:37:30;;;;;;;7.72;1.83;;;;;;;8.87;56.65;98451.59;1088150;54;20038;-81
2022/04/08 07:38:34;;;;;;;6.93;1.50;;;;;;;8.87;56.90;98452.44;1088098;54;20034;-79
2022/04/08 07:39:41;;;;;;;7.63;1.80;;;;;;;8.86;57.13;98453.44;1087859;54;20873;-79
2022/04/08 07:40:46;;;;;;;6.55;1.90;;;;;;;8.82;56.77;98453.97;1088046;54;20026;-80
2022/04/08 07:41:48;;;;;;;8.23;1.63;;;;;;;8.88;57.13;98447.94;1091038;46;20035;-80
2022/04/08 07:42:52;;;;;;;8.85;2.13;;;;;;;8.84;56.88;98452.78;1088203;54;20045;-81
2022/04/08 07:43:59;;;;;;;5.43;1.63;;;;;;;8.86;57.13;98453.44;1088197;54;20046;-78
2022/04/08 07:45:01;;;;;;;8.65;1.80;;;;;;;8.99;56.96;98446.72;1088237;54;20022;-79
2022/04/08 07:46:05;;;;;;;7.10;1.88;;;;;;;8.99;56.74;98449.38;1088421;54;20034;-80
2022/04/08 07:47:11;;;;;;;6.75;1.70;;;;;;;8.84;57.34;98447.44;1088363;54;20023;-80
2022/04/08 07:48:12;;;;;;;7.40;2.60;;;;;;;8.77;57.49;98453.63;1103870;47;20034;-81
2022/04/08 07:49:18;;;;;;;8.10;2.13;;;;;;;8.78;57.32;98442.81;1090162;47;20030;-79
2022/04/08 07:50:29;;;;;;;5.10;1.40;;;;;;;8.80;57.57;98448.78;1088446;54;20025;-77
2022/04/08 07:51:33;;;;;;;7.88;1.73;;;;;;;8.69;58.09;98438.53;1088127;54;20030;-78
2022/04/08 07:52:37;;;;;;;11.05;1.65;;;;;;;8.63;58.13;98450.69;1098775;47;20030;-78
2022/04/08 07:53:44;;;;;;;8.02;2.35;;;;;;;8.64;58.52;98451.50;1088432;54;20015;-80
2022/04/08 07:54:47;;;;;;;7.60;1.88;;;;;;;8.54;58.86;98444.56;1089118;47;20014;-80
2022/04/08 07:55:54;;;;;;;8.27;1.55;;;;;;;8.47;59.34;98440.03;1088026;54;20083;-79
2022/04/08 07:56:56;;;;;;;8.93;2.88;;;;;;;8.50;59.96;98445.88;1088163;47;20023;-79
2022/04/08 07:58:00;;;;;;;8.15;1.88;;;;;;;8.36;60.67;98446.56;1088246;54;20019;-80
2022/04/08 07:59:04;;;;;;;13.35;3.40;;;;;;;8.47;60.78;98445.38;1088202;54;20042;-80
2022/04/08 08:00:12;;;;;;;10.35;3.75;;;;;;;8.46;61.21;98449.03;1088130;54;20042;-80
2022/04/08 08:01:17;;;;;;;10.93;4.57;;;;;;;8.46;61.62;98447.22;1088210;54;20058;-78
2022/04/08 08:02:19;;;;;;;10.75;5.05;;;;;;;8.63;61.00;98449.84;1088200;54;20099;-78
2022/04/08 08:03:23;;;;;;;11.55;4.25;;;;;;;8.49;61.73;98446.06;1088114;54;20098;-80
2022/04/08 08:04:24;;;;;;;9.48;3.80;;;;;;;8.30;62.21;98445.41;1088107;54;20058;-79
2022/04/08 08:05:30;;;;;;;8.75;3.20;;;;;;;8.42;62.30;98448.53;1088138;54;20014;-79
2022/04/08 08:06:32;;;;;;;9.70;3.80;;;;;;;8.27;62.79;98441.25;1088149;54;20046;-81
2022/04/08 08:07:46;;;;;;;7.45;3.20;;;;;;;8.38;63.31;98436.56;1088068;54;20046;-79
2022/04/08 08:08:50;;;;;;;8.07;2.65;;;;;;;8.28;63.24;98432.28;1088147;54;20018;-81
2022/04/08 08:09:53;;;;;;;8.05;2.83;;;;;;;8.13;63.72;98433.94;1088085;54;20023;-80
2022/04/08 08:10:58;;;;;;;7.72;2.97;;;;;;;8.23;64.01;98434.59;1088118;54;20095;-80
2022/04/08 08:12:00;;;;;;;5.82;2.72;;;;;;;8.25;64.37;98424.63;1088193;54;20888;-79
2022/04/08 08:13:05;;;;;;;6.85;2.38;;;;;;;8.14;64.83;98430.28;1087987;54;20034;-79
2022/04/08 08:14:09;;;;;;;5.88;2.10;;;;;;;8.03;65.17;98428.81;1088510;54;20054;-78
2022/04/08 08:15:15;;;;;;;6.68;1.60;;;;;;;8.11;65.07;98426.13;1088444;54;20710;-77
2022/04/08 08:16:19;;;;;;;6.20;1.75;;;;;;;8.10;65.53;98429.78;1088650;46;20030;-79
2022/04/08 08:17:23;;;;;;;6.70;1.63;;;;;;;8.05;66.11;98436.63;1088461;54;20034;-79
2022/04/08 08:18:28;;;;;;;5.47;2.00;;;;;;;8.07;65.81;98431.97;1088408;54;20057;-77
2022/04/08 08:19:30;;;;;;;7.28;1.80;;;;;;;7.93;66.74;98436.13;1088368;54;20049;-78
2022/04/08 08:20:34;;;;;;;7.35;2.53;;;;;;;7.92;66.95;98426.50;1088463;54;20026;-78
2022/04/08 08:21:36;;;;;;;15.23;7.38;;;;;;;7.89;67.24;98430.31;1088424;54;20042;-79
2022/04/08 08:22:41;;;;;;;6.90;3.45;;;;;;;8.01;66.91;98432.66;1088400;54;20115;-78
2022/04/08 08:23:45;;;;;;;10.52;4.38;;;;;;;7.90;67.27;98437.31;1090925;39;20673;-79
2022/04/08 08:24:47;;;;;;;5.70;2.20;;;;;;;7.84;67.38;98435.28;1088421;54;20034;-79
2022/04/08 08:25:51;;;;;;;7.50;2.50;;;;;;;7.79;68.06;98438.44;1093251;46;20035;-79
2022/04/08 08:26:52;;;;;;;6.65;1.63;;;;;;;7.78;68.68;98430.66;1092457;39;20617;-78
2022/04/08 08:28:01;;;;;;;5.53;1.67;;;;;;;7.75;68.01;98430.97;1088418;54;20019;-79
2022/04/08 08:29:05;;;;;;;5.53;1.48;;;;;;;7.75;68.01;98436.28;1089340;46;20106;-79
2022/04/08 08:30:16;;;;;;;4.57;1.15;;;;;;;7.62;69.14;98432.31;1088231;54;20031;-78
2022/04/08 08:31:26;;;;;;;6.18;1.70;;;;;;;7.60;68.85;98428.97;1088491;54;20043;-79
2022/04/08 08:33:33;;;;;;;4.50;1.20;;;;;;;7.52;69.32;98428.97;1088416;54;20031;-80
2022/04/08 08:34:35;;;;;;;3.53;1.13;;;;;;;7.42;69.47;98433.63;1088447;54;20042;-80
2022/04/08 08:35:39;;;;;;;4.07;1.10;;;;;;;7.42;68.97;98431.78;1097149;46;20098;-79
2022/04/08 08:36:43;;;;;;;6.40;1.10;;;;;;;7.42;69.16;98425.66;1088449;54;20034;-79
2022/04/08 08:37:57;;;;;;;5.35;1.60;;;;;;;7.33;69.82;98428.28;1089779;46;20041;-78
2022/04/08 08:39:00;;;;;;;4.75;1.38;;;;;;;7.50;68.99;98436.28;1088406;54;20033;-79
2022/04/08 08:40:06;;;;;;;5.63;1.33;;;;;;;7.39;69.71;98431.28;1088385;54;20023;-79
2022/04/08 08:41:09;;;;;;;3.83;1.15;;;;;;;7.38;69.60;98434.94;1088458;54;20034;-79
2022/04/08 08:42:14;;;;;;;4.97;1.10;;;;;;;7.40;69.86;98431.13;1088395;54;20041;-79
2022/04/08 08:43:17;;;;;;;4.57;1.27;;;;;;;7.46;69.51;98433.13;1088471;46;20038;-79
2022/04/08 08:44:21;;;;;;;7.65;1.35;;;;;;;7.44;69.97;98434.28;1088331;54;20090;-78
2022/04/08 08:45:32;;;;;;;5.03;1.10;;;;;;;7.33;70.50;98428.28;1093311;39;20256;-78
2022/04/08 08:46:34;;;;;;;;;;;;;;;7.22;71.48;98427.78;1088129;54;20059;-78
2022/04/08 08:47:41;;;;;;;4.20;0.90;;;;;;;7.16;71.03;98431.91;1088331;54;19949;-78
2022/04/08 08:48:44;;;;;;;7.88;1.50;;;;;;;7.18;71.27;98435.22;1088224;54;20042;-78
2022/04/08 08:49:52;;;;;;;4.63;1.75;;;;;;;7.25;71.20;98430.94;1087942;54;20078;-78
2022/04/08 08:50:56;;;;;;;5.13;1.15;;;;;;;7.15;71.66;98420.44;1087978;54;20046;-79
2022/04/08 08:51:59;;;;;;;5.88;1.05;;;;;;;7.25;71.62;98422.13;1088007;54;20058;-78
2022/04/08 08:53:03;;;;;;;6.35;1.38;;;;;;;7.14;71.68;98418.78;1087908;54;20029;-79
2022/04/08 08:54:05;;;;;;;3.78;1.10;;;;;;;7.21;71.74;98418.97;1088002;54;20038;-79
2022/04/08 08:55:10;;;;;;;4.78;1.05;;;;;;;7.19;72.04;98420.94;1089512;39;20280;-78
2022/04/08 08:56:15;;;;;;;4.10;1.30;;;;;;;7.32;71.79;98423.16;1088143;54;20501;-77
2022/04/08 08:57:18;;;;;;;3.78;0.85;;;;;;;7.22;71.97;98425.94;1090971;39;20710;-80
2022/04/08 08:58:23;;;;;;;5.43;1.08;;;;;;;7.23;72.41;98424.94;1088013;54;20030;-77
2022/04/08 08:59:24;;;;;;;3.63;1.10;;;;;;;7.20;72.83;98421.78;1087951;54;20038;-78
2022/04/08 09:00:31;;;;;;;4.10;1.02;;;;;;;7.23;72.42;98418.78;1088066;54;20031;-79
2022/04/08 09:01:33;;;;;;;3.88;1.17;;;;;;;7.12;72.67;98415.47;1087995;54;20045;-80
2022/04/08 09:02:37;;;;;;;4.97;1.20;;;;;;;7.16;72.97;98415.97;1088039;54;20078;-78
2022/04/08 09:03:41;;;;;;;6.20;1.30;;;;;;;7.10;73.78;98413.94;1087999;54;20030;-80
2022/04/08 09:04:45;;;;;;;8.02;1.85;;;;;;;7.02;73.71;98420.91;1089001;46;20035;-80
2022/04/08 09:05:50;;;;;;;4.47;1.13;;;;;;;6.98;73.88;98414.25;1088005;54;20034;-79
2022/04/08 09:06:54;;;;;;;7.13;1.30;;;;;;;6.96;74.47;98410.94;1087930;54;20046;-80
2022/04/08 09:07:59;;;;;;;4.72;1.35;;;;;;;7.02;74.47;98412.94;1087971;54;20034;-78
2022/04/08 09:09:01;;;;;;;11.15;1.60;;;;;;;7.22;73.93;98420.63;1087985;54;20026;-78
2022/04/08 09:10:05;;;;;;;6.82;1.20;;;;;;;7.12;74.19;98409.31;1087922;54;20042;-77
2022/04/08 09:11:07;;;;;;;4.53;1.10;;;;;;;7.19;74.34;98410.31;1088030;54;20023;-80
2022/04/08 09:12:13;;;;;;;5.28;1.25;;;;;;;7.26;74.00;98403.38;1091464;39;20291;-78
2022/04/08 09:13:21;;;;;;;5.43;1.20;;;;;;;7.28;73.69;98404.00;1088108;54;20030;-78
2022/04/08 09:14:27;;;;;;;5.90;1.50;;;;;;;7.17;74.23;98399.03;1089822;46;20038;-77
2022/04/08 09:15:34;;;;;;;5.60;1.73;;;;;;;7.16;74.53;98398.19;1094107;39;20563;-78
2022/04/08 09:16:39;;;;;;;7.57;2.03;;;;;;;7.30;74.16;98394.06;1088201;54;20045;-78
2022/04/08 09:17:43;;;;;;;5.93;2.17;;;;;;;7.29;74.22;98395.03;1087883;54;20030;-79
2022/04/08 09:18:48;;;;;;;5.88;2.17;;;;;;;7.17;74.67;98399.03;1087961;54;20046;-80
2022/04/08 09:19:54;;;;;;;5.18;1.80;;;;;;;7.26;74.48;98395.38;1087955;54;20043;-78
2022/04/08 09:20:59;;;;;;;8.05;2.50;;;;;;;7.23;74.93;98394.88;1088008;54;20041;-77
2022/04/08 09:22:00;;;;;;;4.85;1.77;;;;;;;7.18;74.91;98398.84;1088056;47;20046;-80
2022/04/08 09:23:08;;;;;;;5.80;1.77;;;;;;;7.21;75.22;98392.38;1087722;54;20030;-80
2022/04/08 09:24:10;;;;;;;6.78;2.63;;;;;;;7.22;74.69;98388.72;1088082;54;20034;-78
2022/04/08 09:25:15;;;;;;;3.92;1.50;;;;;;;7.25;74.32;98385.75;1087980;54;20800;-77
2022/04/08 09:26:20;;;;;;;5.38;1.52;;;;;;;7.01;74.92;98391.84;1088034;54;20031;-77
2022/04/08 09:27:32;;;;;;;4.50;1.20;;;;;;;7.10;75.27;98390.03;1088004;54;20057;-78
2022/04/08 09:28:38;;;;;;;4.07;1.20;;;;;;;7.09;75.02;98378.56;1088336;54;20018;-78
2022/04/08 09:29:43;;;;;;;4.25;1.25;;;;;;;7.03;75.57;98380.06;1090694;46;20045;-78
2022/04/08 09:30:55;;;;;;;6.65;1.33;;;;;;;7.00;75.80;98385.69;1092816;46;20030;-78
2022/04/08 09:31:57;;;;;;;4.30;1.08;;;;;;;7.00;75.90;98377.72;1088357;54;20038;-78
2022/04/08 09:33:03;;;;;;;6.88;1.45;;;;;;;7.00;75.70;98375.06;1088084;54;20080;-81
2022/04/08 09:34:16;;;;;;;4.90;1.10;;;;;;;7.05;76.68;98373.75;1088381;54;20025;-80
2022/04/08 09:35:19;;;;;;;4.80;1.33;;;;;;;7.16;75.68;98368.94;1088379;54;20022;-78
2022/04/08 09:36:35;;;;;;;4.30;1.10;;;;;;;7.24;76.59;98369.94;1088438;54;20041;-79
2022/04/08 09:37:36;;;;;;;3.90;0.95;;;;;;;7.22;75.43;98359.50;1092452;46;20027;-79
2022/04/08 09:38:51;;;;;;;5.22;1.20;;;;;;;7.28;75.72;98360.66;1089007;46;20021;-78
2022/04/08 09:39:56;;;;;;;3.83;1.48;;;;;;;7.25;75.54;98355.66;1088598;46;20018;-79
2022/04/08 09:41:07;;;;;;;5.38;1.50;;;;;;;7.13;75.88;98353.31;1088329;54;20071;-77
2022/04/08 09:42:08;;;;;;;5.78;2.53;;;;;;;7.12;75.80;98353.50;1088338;54;20046;-78
2022/04/08 09:43:13;;;;;;;7.72;2.38;;;;;;;7.17;75.76;98346.69;1089776;46;20081;-77
2022/04/08 09:44:24;;;;;;;6.07;1.65;;;;;;;7.30;75.10;98348.03;1088063;54;20026;-78
2022/04/08 09:45:30;;;;;;;7.35;1.63;;;;;;;7.32;75.51;98346.88;1088274;54;20026;-78
2022/04/08 09:46:37;;;;;;;4.80;1.35;;;;;;;7.23;76.09;98350.53;1088329;54;20034;-79
2022/04/08 09:47:42;;;;;;;4.35;1.02;;;;;;;7.44;75.46;98341.22;1088291;54;20038;-77